createdAt,value
2022-09-07T00:01:07.380Z,97.30
2022-09-07T00:03:35.826Z,97.30
2022-09-07T00:06:12.389Z,97.40
2022-09-07T00:08:41.247Z,97.40
2022-09-07T00:11:13.500Z,97.50
2022-09-07T00:13:42.443Z,97.30
2022-09-07T00:16:28.529Z,97.30
2022-09-07T00:18:59.299Z,97.40
2022-09-07T00:21:27.430Z,97.30
2022-09-07T00:23:55.539Z,97.30
2022-09-07T00:26:28.734Z,97.40
2022-09-07T00:29:03.439Z,97.50
2022-09-07T00:31:31.507Z,97.50
2022-09-07T00:34:00.787Z,97.60
2022-09-07T00:36:28.552Z,98.10
2022-09-07T00:38:56.439Z,97.90
2022-09-07T00:41:24.375Z,98.00
2022-09-07T00:43:54.842Z,98.10
2022-09-07T00:46:24.327Z,98.20
2022-09-07T00:49:08.058Z,98.20
2022-09-07T00:52:03.907Z,98.30
2022-09-07T00:54:36.915Z,98.30
2022-09-07T00:57:04.894Z,98.40
2022-09-07T00:59:43.308Z,98.50
2022-09-07T01:02:13.201Z,98.50
2022-09-07T01:04:41.591Z,98.40
2022-09-07T01:07:09.251Z,98.30
2022-09-07T01:09:37.546Z,98.20
2022-09-07T01:12:05.730Z,98.20
2022-09-07T01:14:41.273Z,98.20
2022-09-07T01:17:58.882Z,98.40
2022-09-07T01:20:42.480Z,98.50
2022-09-07T01:23:34.024Z,98.90
2022-09-07T01:26:19.993Z,99.10
2022-09-07T01:28:54.199Z,99.10
2022-09-07T01:31:42.963Z,98.80
2022-09-07T01:34:26.476Z,98.60
2022-09-07T01:37:02.982Z,99.20
2022-09-07T01:39:50.100Z,98.70
2022-09-07T01:42:22.810Z,99.90
2022-09-07T01:44:56.618Z,99.90
2022-09-07T01:47:39.447Z,99.90
2022-09-07T01:50:21.163Z,99.70
2022-09-07T01:52:59.481Z,99.10
2022-09-07T01:55:42.897Z,99.10
2022-09-07T01:58:19.218Z,99.00
2022-09-07T02:01:01.876Z,99.10
2022-09-07T02:03:54.353Z,99.00
2022-09-07T02:06:40.400Z,99.00
2022-09-07T02:09:14.961Z,99.20
2022-09-07T02:11:46.699Z,99.90
2022-09-07T02:14:25.311Z,99.90
2022-09-07T02:16:52.663Z,99.90
2022-09-07T02:19:21.797Z,99.90
2022-09-07T02:21:57.823Z,99.90
2022-09-07T02:24:35.891Z,99.90
2022-09-07T02:27:13.678Z,99.90
2022-09-07T02:29:43.520Z,99.90
2022-09-07T02:32:11.273Z,99.90
2022-09-07T02:34:38.925Z,99.90
2022-09-07T02:37:09.117Z,99.90
2022-09-07T02:39:37.127Z,99.90
2022-09-07T02:42:04.832Z,99.90
2022-09-07T02:44:37.023Z,99.90
2022-09-07T02:47:16.655Z,99.90
2022-09-07T02:50:03.533Z,99.90
2022-09-07T02:52:33.934Z,99.90
2022-09-07T02:55:16.363Z,99.90
2022-09-07T02:57:55.835Z,99.90
2022-09-07T03:00:26.460Z,99.90
2022-09-07T03:02:56.981Z,99.90
2022-09-07T03:05:46.306Z,99.90
2022-09-07T03:08:25.235Z,99.90
2022-09-07T03:10:54.380Z,99.90
2022-09-07T03:13:29.986Z,99.90
2022-09-07T03:15:57.911Z,99.90
2022-09-07T03:18:26.937Z,99.90
2022-09-07T03:20:54.910Z,99.90
2022-09-07T03:23:22.484Z,99.90
2022-09-07T03:25:50.280Z,99.90
2022-09-07T03:28:17.763Z,99.90
2022-09-07T03:30:49.144Z,99.90
2022-09-07T03:33:17.488Z,99.90
2022-09-07T03:35:46.304Z,99.90
2022-09-07T03:38:13.819Z,99.90
2022-09-07T03:40:41.189Z,99.90
2022-09-07T03:43:08.641Z,99.90
2022-09-07T03:45:36.116Z,99.90
2022-09-07T03:48:03.573Z,99.90
2022-09-07T03:50:31.041Z,99.90
2022-09-07T03:52:58.430Z,99.90
2022-09-07T03:55:25.917Z,99.90
2022-09-07T03:57:53.377Z,99.90
2022-09-07T04:00:20.888Z,99.90
2022-09-07T04:02:48.417Z,99.90
2022-09-07T04:05:16.579Z,99.90
2022-09-07T04:07:44.108Z,99.90
2022-09-07T04:10:11.511Z,99.90
2022-09-07T04:12:39.043Z,99.90
2022-09-07T04:15:06.895Z,99.90
2022-09-07T04:17:34.313Z,99.90
2022-09-07T04:20:01.949Z,99.90
2022-09-07T04:22:29.424Z,99.90
2022-09-07T04:24:56.807Z,99.90
2022-09-07T04:27:24.295Z,99.90
2022-09-07T04:29:51.691Z,99.90
2022-09-07T04:32:19.202Z,99.90
2022-09-07T04:34:47.271Z,99.90
2022-09-07T04:37:14.781Z,99.90
2022-09-07T04:39:42.323Z,99.90
2022-09-07T04:42:09.733Z,99.90
2022-09-07T04:44:37.196Z,99.90
2022-09-07T04:47:04.731Z,99.90
2022-09-07T04:49:32.330Z,99.90
2022-09-07T04:51:59.850Z,99.90
2022-09-07T04:54:27.246Z,99.90
2022-09-07T04:56:54.633Z,99.90
2022-09-07T04:59:22.098Z,99.90
2022-09-07T05:01:49.527Z,99.90
2022-09-07T05:04:16.971Z,99.90
2022-09-07T05:06:44.448Z,99.90
2022-09-07T05:09:11.906Z,99.90
2022-09-07T05:11:39.368Z,99.90
2022-09-07T05:14:07.130Z,99.90
2022-09-07T05:16:35.189Z,99.90
2022-09-07T05:19:05.050Z,99.90
2022-09-07T05:21:34.223Z,99.90
2022-09-07T05:24:02.111Z,99.90
2022-09-07T05:26:32.745Z,99.90
2022-09-07T05:31:50.162Z,99.90
2022-09-07T05:34:33.412Z,99.90
2022-09-07T05:37:01.835Z,99.90
2022-09-07T05:39:29.689Z,99.90
2022-09-07T05:41:57.241Z,99.90
2022-09-07T05:47:12.719Z,99.90
2022-09-07T05:49:40.589Z,99.90
2022-09-07T05:52:08.244Z,99.90
2022-09-07T05:54:35.766Z,99.40
2022-09-07T05:57:03.649Z,99.60
2022-09-07T05:59:31.278Z,99.60
2022-09-07T06:01:58.970Z,99.10
2022-09-07T06:04:26.544Z,98.50
2022-09-07T06:12:29.297Z,97.40
2022-09-07T06:14:56.734Z,97.00
2022-09-07T06:17:24.159Z,97.30
2022-09-07T06:19:51.662Z,97.60
2022-09-07T06:22:19.056Z,97.40
2022-09-07T06:24:46.522Z,97.00
2022-09-07T06:27:13.962Z,96.20
2022-09-07T06:29:41.347Z,95.80
2022-09-07T06:34:56.211Z,93.90
2022-09-07T06:37:23.812Z,93.10
2022-09-07T06:39:51.224Z,92.60
2022-09-07T06:42:18.684Z,92.00
2022-09-07T06:44:46.164Z,92.30
2022-09-07T06:47:13.767Z,91.90
2022-09-07T06:49:41.251Z,91.70
2022-09-07T06:52:08.753Z,91.30
2022-09-07T06:57:23.773Z,92.70
2022-09-07T06:59:51.546Z,94.00
2022-09-07T07:02:19.563Z,94.70
2022-09-07T07:04:47.032Z,94.30
2022-09-07T07:07:14.870Z,94.60
2022-09-07T07:09:42.649Z,93.90
2022-09-07T07:12:11.193Z,93.90
2022-09-07T07:14:44.007Z,94.10
2022-09-07T07:17:12.724Z,94.90
2022-09-07T07:19:40.378Z,95.10
2022-09-07T07:22:35.992Z,94.20
2022-09-07T07:24:55.299Z,92.50
2022-09-07T07:27:22.788Z,91.50
2022-09-07T07:29:50.335Z,91.50
2022-09-07T07:32:17.777Z,88.90
2022-09-07T07:34:45.217Z,90.80
2022-09-07T07:37:12.637Z,90.00
2022-09-07T07:42:27.412Z,92.30
2022-09-07T07:47:42.835Z,91.40
2022-09-07T07:55:46.273Z,92.90
2022-09-07T07:58:13.671Z,91.60
2022-09-07T08:00:54.289Z,92.50
2022-09-07T08:03:24.769Z,93.30
2022-09-07T08:05:52.361Z,91.40
2022-09-07T08:08:20.183Z,90.80
2022-09-07T08:10:47.871Z,91.00
2022-09-07T08:13:16.672Z,90.70
2022-09-07T08:15:47.119Z,90.40
2022-09-07T08:18:16.919Z,90.30
2022-09-07T08:20:44.492Z,89.10
2022-09-07T08:23:12.097Z,88.20
2022-09-07T08:25:48.576Z,88.70
2022-09-07T08:28:16.146Z,88.90
2022-09-07T08:30:43.748Z,89.70
2022-09-07T08:33:11.214Z,89.60
2022-09-07T08:35:38.560Z,88.60
2022-09-07T08:38:06.040Z,89.30
2022-09-07T08:40:36.962Z,87.80
2022-09-07T08:43:07.276Z,90.00
2022-09-07T08:45:42.341Z,90.10
2022-09-07T08:48:14.852Z,89.90
2022-09-07T08:50:56.240Z,90.70
2022-09-07T08:53:25.499Z,90.90
2022-09-07T08:56:04.362Z,91.00
2022-09-07T08:58:49.642Z,90.80
2022-09-07T09:01:33.288Z,90.60
2022-09-07T09:04:18.136Z,90.60
2022-09-07T09:07:01.233Z,89.60
2022-09-07T09:09:40.402Z,88.60
2022-09-07T09:12:18.888Z,88.60
2022-09-07T09:14:52.974Z,89.00
2022-09-07T09:17:45.927Z,89.90
2022-09-07T09:20:31.651Z,90.10
2022-09-07T09:23:10.082Z,91.00
2022-09-07T09:25:44.220Z,90.20
2022-09-07T09:28:12.680Z,90.50
2022-09-07T09:30:40.175Z,90.10
2022-09-07T09:33:28.274Z,89.30
2022-09-07T09:36:00.996Z,89.50
2022-09-07T09:38:32.926Z,89.30
2022-09-07T09:41:03.680Z,90.20
2022-09-07T09:43:54.147Z,88.90
2022-09-07T09:46:29.429Z,88.00
2022-09-07T09:49:17.156Z,88.60
2022-09-07T09:54:48.682Z,89.40
2022-09-07T09:57:17.540Z,89.30
2022-09-07T10:00:02.992Z,89.30
2022-09-07T10:05:38.568Z,86.60
2022-09-07T10:08:19.891Z,89.60
2022-09-07T10:11:12.391Z,87.20
2022-09-07T10:13:43.449Z,87.50
2022-09-07T10:16:14.954Z,86.60
2022-09-07T10:18:56.175Z,87.20
2022-09-07T10:21:33.270Z,88.40
2022-09-07T10:24:15.178Z,87.00
2022-09-07T10:26:48.618Z,87.40
2022-09-07T10:29:22.673Z,85.70
2022-09-07T10:32:18.522Z,85.30
2022-09-07T10:35:14.825Z,85.90
2022-09-07T10:37:51.597Z,85.30
2022-09-07T10:40:42.995Z,87.80
2022-09-07T10:43:29.360Z,87.80
2022-09-07T10:46:09.097Z,86.70
2022-09-07T10:49:15.191Z,87.90
2022-09-07T10:51:51.590Z,87.00
2022-09-07T10:54:43.529Z,86.50
2022-09-07T10:57:32.537Z,87.40
2022-09-07T11:00:17.751Z,88.00
2022-09-07T11:03:28.298Z,89.40
2022-09-07T11:06:22.323Z,87.90
2022-09-07T11:09:17.266Z,87.30
2022-09-07T11:12:03.401Z,87.00
2022-09-07T11:14:50.317Z,86.40
2022-09-07T11:17:21.658Z,85.90
2022-09-07T11:20:16.336Z,85.50
2022-09-07T11:22:57.824Z,84.70
2022-09-07T11:25:35.230Z,85.30
2022-09-07T11:28:20.923Z,86.60
2022-09-07T11:30:57.853Z,87.00
2022-09-07T11:37:28.498Z,86.80
2022-09-07T11:40:23.421Z,86.70
2022-09-07T11:42:55.762Z,85.20
2022-09-07T11:45:43.858Z,84.50
2022-09-07T11:48:19.528Z,83.30
2022-09-07T11:50:57.508Z,81.80
2022-09-07T11:53:29.729Z,82.70
2022-09-07T11:56:15.160Z,83.80
2022-09-07T11:59:01.003Z,84.40
2022-09-07T12:01:53.287Z,84.90
2022-09-07T12:04:29.743Z,84.60
2022-09-07T12:07:16.597Z,83.70
2022-09-07T12:10:28.657Z,84.80
2022-09-07T12:13:12.858Z,84.20
2022-09-07T12:16:15.110Z,85.90
2022-09-07T12:19:03.754Z,85.30
2022-09-07T12:21:38.098Z,84.70
2022-09-07T12:24:05.787Z,84.80
2022-09-07T12:26:33.418Z,85.60
2022-09-07T12:29:00.769Z,83.60
2022-09-07T12:31:59.766Z,83.60
2022-09-07T12:34:35.083Z,83.20
2022-09-07T12:37:34.497Z,85.10
2022-09-07T12:40:29.436Z,82.90
2022-09-07T12:43:15.185Z,82.50
2022-09-07T12:45:42.583Z,81.70
2022-09-07T12:48:15.935Z,82.40
2022-09-07T12:51:04.847Z,83.10
2022-09-07T12:53:32.178Z,83.30
2022-09-07T12:56:24.667Z,83.10
2022-09-07T12:59:29.747Z,80.30
2022-09-07T13:02:30.727Z,78.80
2022-09-07T13:05:31.983Z,80.00
2022-09-07T13:08:20.382Z,81.70
2022-09-07T13:10:48.166Z,82.50
2022-09-07T13:13:15.796Z,82.20
2022-09-07T13:16:14.474Z,82.00
2022-09-07T13:18:44.297Z,83.00
2022-09-07T13:21:12.961Z,81.50
2022-09-07T13:24:45.660Z,82.30
2022-09-07T13:27:18.291Z,83.10
2022-09-07T13:29:55.121Z,83.50
2022-09-07T13:35:25.064Z,83.90
2022-09-07T13:37:58.973Z,86.50
2022-09-07T13:40:37.781Z,87.20
2022-09-07T13:43:06.024Z,87.30
2022-09-07T13:45:46.799Z,86.20
2022-09-07T13:48:27.842Z,87.50
2022-09-07T13:51:16.542Z,86.10
2022-09-07T13:53:56.172Z,84.80
2022-09-07T13:56:33.030Z,84.50
2022-09-07T13:59:12.434Z,85.10
2022-09-07T14:01:45.998Z,85.80
2022-09-07T14:04:31.504Z,85.50
2022-09-07T14:07:13.010Z,86.40
2022-09-07T14:09:41.171Z,86.50
2022-09-07T14:12:16.627Z,87.70
2022-09-07T14:14:44.137Z,88.30
2022-09-07T14:17:18.363Z,88.20
2022-09-07T14:19:49.544Z,87.30
2022-09-07T14:22:26.486Z,87.00
2022-09-07T14:24:58.938Z,88.00
2022-09-07T14:27:32.014Z,87.30
2022-09-07T14:30:24.116Z,87.40
2022-09-07T14:32:53.985Z,87.20
2022-09-07T14:35:41.775Z,86.90
2022-09-07T14:41:20.339Z,87.20
2022-09-07T14:43:56.274Z,88.20
2022-09-07T14:46:23.717Z,88.20
2022-09-07T14:48:55.249Z,88.20
2022-09-07T14:51:36.254Z,88.40
2022-09-07T14:54:09.014Z,87.60
2022-09-07T14:56:40.327Z,88.10
2022-09-07T14:59:36.825Z,87.20
2022-09-07T15:02:19.829Z,87.20
2022-09-07T15:04:48.822Z,88.10
2022-09-07T15:07:29.610Z,87.60
2022-09-07T15:10:25.544Z,86.90
2022-09-07T15:12:59.213Z,87.10
2022-09-07T15:15:30.449Z,87.80
2022-09-07T15:18:07.618Z,88.90
2022-09-07T15:20:37.362Z,87.60
2022-09-07T15:23:08.863Z,87.00
2022-09-07T15:25:36.675Z,85.60
2022-09-07T15:28:04.719Z,86.40
2022-09-07T15:30:33.494Z,86.90
2022-09-07T15:33:01.053Z,88.20
2022-09-07T15:35:28.722Z,86.90
2022-09-07T15:38:05.186Z,85.90
2022-09-07T15:41:03.794Z,86.90
2022-09-07T15:43:30.673Z,87.20
2022-09-07T15:45:58.189Z,87.90
2022-09-07T15:48:25.978Z,88.00
2022-09-07T15:52:04.840Z,87.80
2022-09-07T15:54:12.897Z,88.20
2022-09-07T15:56:40.826Z,89.00
2022-09-07T15:59:09.183Z,89.70
2022-09-07T16:01:52.565Z,89.30
2022-09-07T16:04:20.941Z,89.10
2022-09-07T16:06:51.021Z,89.30
2022-09-07T16:09:21.863Z,90.00
2022-09-07T16:11:51.294Z,90.10
2022-09-07T16:14:18.986Z,89.90
2022-09-07T16:19:35.277Z,89.60
2022-09-07T16:22:03.672Z,90.30
2022-09-07T16:24:31.313Z,90.80
2022-09-07T16:26:58.918Z,90.70
2022-09-07T16:29:26.474Z,90.50
2022-09-07T16:34:41.336Z,90.60
2022-09-07T16:37:08.870Z,90.90
2022-09-07T16:39:37.174Z,90.90
2022-09-07T16:42:04.856Z,90.70
2022-09-07T16:44:35.013Z,90.70
2022-09-07T16:47:02.590Z,90.80
2022-09-07T16:49:31.164Z,90.80
2022-09-07T16:51:59.087Z,90.90
2022-09-07T16:54:26.701Z,90.80
2022-09-07T16:56:54.069Z,90.70
2022-09-07T16:59:26.223Z,90.90
2022-09-07T17:01:53.819Z,91.30
2022-09-07T17:04:21.406Z,91.50
2022-09-07T17:06:48.924Z,91.50
2022-09-07T17:09:16.289Z,91.30
2022-09-07T17:11:43.844Z,91.40
2022-09-07T17:14:11.310Z,91.90
2022-09-07T17:16:40.829Z,92.10
2022-09-07T17:22:00.247Z,92.60
2022-09-07T17:24:27.813Z,93.00
2022-09-07T17:26:55.183Z,93.40
2022-09-07T17:29:22.644Z,93.70
2022-09-07T17:34:37.464Z,94.00
2022-09-07T17:37:06.187Z,94.10
2022-09-07T17:39:33.873Z,94.40
2022-09-07T17:42:01.780Z,94.70
2022-09-07T17:44:34.715Z,94.90
2022-09-07T17:47:05.556Z,95.00
2022-09-07T17:49:32.999Z,95.10
2022-09-07T17:52:01.084Z,95.30
2022-09-07T17:54:28.955Z,95.50
2022-09-07T17:56:56.470Z,95.70
2022-09-07T18:02:13.881Z,95.90
2022-09-07T18:04:41.662Z,96.00
2022-09-07T18:07:09.189Z,96.30
2022-09-07T18:09:36.819Z,96.10
2022-09-07T18:12:04.509Z,96.10
2022-09-07T18:14:32.190Z,96.20
2022-09-07T18:17:00.266Z,96.20
2022-09-07T18:19:28.418Z,96.30
2022-09-07T18:21:55.866Z,96.40
2022-09-07T18:24:24.594Z,96.60
2022-09-07T18:26:53.664Z,97.00
2022-09-07T18:29:29.408Z,97.30
2022-09-07T18:32:00.121Z,97.50
2022-09-07T18:34:28.825Z,97.70
2022-09-07T18:36:57.420Z,97.80
2022-09-07T18:39:26.024Z,98.00
2022-09-07T18:41:56.414Z,98.10
2022-09-07T18:47:21.423Z,98.50
2022-09-07T18:49:50.014Z,98.50
2022-09-07T18:55:07.235Z,99.00
2022-09-07T18:57:36.140Z,99.10
2022-09-07T19:00:06.374Z,99.20
2022-09-07T19:02:33.962Z,99.20
2022-09-07T19:07:49.396Z,99.20
2022-09-07T19:10:17.748Z,99.30
2022-09-07T19:12:46.171Z,99.40
2022-09-07T19:15:14.715Z,99.50
2022-09-07T19:17:42.160Z,99.50
2022-09-07T19:20:10.294Z,99.60
2022-09-07T19:22:37.817Z,99.70
2022-09-07T19:25:06.295Z,99.80
2022-09-07T19:27:33.925Z,99.80
2022-09-07T19:30:01.619Z,99.90
2022-09-07T19:32:29.264Z,99.90
2022-09-07T19:34:56.734Z,99.90
2022-09-07T19:37:25.553Z,99.90
2022-09-07T19:39:56.568Z,99.90
2022-09-07T19:42:25.299Z,99.90
2022-09-07T19:44:54.112Z,99.90
2022-09-07T19:47:23.227Z,99.90
2022-09-07T19:49:52.261Z,99.90
2022-09-07T19:52:19.743Z,99.90
2022-09-07T19:54:47.098Z,99.90
2022-09-07T19:57:14.496Z,99.90
2022-09-07T19:59:41.916Z,99.90
2022-09-07T20:02:10.461Z,99.90
2022-09-07T20:04:38.085Z,99.90
2022-09-07T20:07:06.630Z,99.90
2022-09-07T20:09:34.138Z,99.90
2022-09-07T20:12:03.688Z,99.90
2022-09-07T20:14:31.127Z,99.90
2022-09-07T20:16:58.535Z,99.90
2022-09-07T20:19:26.161Z,99.90
2022-09-07T20:21:55.847Z,99.90
2022-09-07T20:24:23.387Z,99.90
2022-09-07T20:26:50.804Z,99.90
2022-09-07T20:29:33.801Z,99.90
2022-09-07T20:32:01.806Z,99.80
2022-09-07T20:34:29.837Z,99.60
2022-09-07T20:36:57.410Z,99.60
2022-09-07T20:39:25.373Z,99.50
2022-09-07T20:41:52.869Z,99.70
2022-09-07T20:44:20.386Z,99.80
2022-09-07T20:46:47.872Z,99.90
2022-09-07T20:49:15.695Z,99.90
2022-09-07T20:51:43.230Z,99.90
2022-09-07T20:54:10.675Z,99.90
2022-09-07T20:56:38.176Z,99.90
2022-09-07T20:59:05.614Z,99.90
2022-09-07T21:01:33.339Z,99.90
2022-09-07T21:04:01.635Z,99.90
2022-09-07T21:06:30.937Z,99.90
2022-09-07T21:08:58.709Z,99.90
2022-09-07T21:11:32.670Z,99.90
2022-09-07T21:14:06.876Z,99.90
2022-09-07T21:16:35.899Z,99.90
2022-09-07T21:19:08.235Z,99.90
2022-09-07T21:21:39.132Z,99.90
2022-09-07T21:24:16.999Z,99.90
2022-09-07T21:26:44.903Z,99.90
2022-09-07T21:29:24.177Z,99.90
2022-09-07T21:31:54.500Z,99.90
2022-09-07T21:34:23.211Z,99.90
2022-09-07T21:36:51.032Z,99.90
2022-09-07T21:39:19.273Z,99.90
2022-09-07T21:41:47.027Z,99.90
2022-09-07T21:44:15.729Z,99.90
2022-09-07T21:46:43.758Z,99.60
2022-09-07T21:49:11.568Z,99.40
2022-09-07T21:51:39.057Z,99.40
2022-09-07T21:54:06.736Z,99.30
2022-09-07T21:56:34.153Z,99.30
2022-09-07T21:59:02.599Z,99.40
2022-09-07T22:01:31.272Z,99.40
2022-09-07T22:04:01.297Z,99.70
2022-09-07T22:06:30.051Z,99.90
2022-09-07T22:08:58.688Z,99.90
2022-09-07T22:11:27.647Z,99.90
2022-09-07T22:13:56.840Z,99.90
2022-09-07T22:16:24.863Z,99.90
2022-09-07T22:18:52.421Z,99.90
2022-09-07T22:21:22.698Z,99.90
2022-09-07T22:23:52.465Z,99.90
2022-09-07T22:26:22.944Z,99.90
2022-09-07T22:28:50.786Z,99.90
2022-09-07T22:31:35.986Z,99.90
2022-09-07T22:34:06.001Z,99.90
2022-09-07T22:36:38.559Z,99.90
2022-09-07T22:39:09.023Z,99.90
2022-09-07T22:41:38.327Z,99.90
2022-09-07T22:44:08.335Z,99.90
2022-09-07T22:46:37.786Z,99.90
2022-09-07T22:49:06.677Z,99.90
2022-09-07T22:51:34.117Z,99.90
2022-09-07T22:54:01.721Z,99.90
2022-09-07T22:56:31.840Z,99.90
2022-09-07T22:59:01.187Z,99.90
2022-09-07T23:01:30.213Z,99.90
2022-09-07T23:03:58.450Z,99.90
2022-09-07T23:06:35.142Z,99.90
2022-09-07T23:09:09.001Z,99.90
2022-09-07T23:11:36.889Z,99.90
2022-09-07T23:14:07.226Z,99.90
2022-09-07T23:16:34.686Z,99.90
2022-09-07T23:19:02.290Z,99.90
2022-09-07T23:21:30.315Z,99.90
2022-09-07T23:23:59.661Z,99.90
2022-09-07T23:26:30.032Z,99.90
2022-09-07T23:29:02.790Z,99.90
2022-09-07T23:31:32.790Z,99.90
2022-09-07T23:34:01.810Z,99.90
2022-09-07T23:36:29.988Z,99.90
2022-09-07T23:38:59.499Z,99.90
2022-09-07T23:41:27.663Z,99.90
2022-09-07T23:43:55.518Z,99.90
2022-09-07T23:46:23.155Z,99.90
2022-09-07T23:48:51.110Z,99.90
2022-09-07T23:51:23.468Z,99.90
2022-09-07T23:53:52.406Z,99.90
2022-09-07T23:56:20.846Z,99.90
2022-09-07T23:58:48.337Z,99.90
